Hlavní strana
METAR-TAF:

METAR-TAF

Letiště :

Bolton Field

Columbus, Ohio, Spojené státy americké

zeměpisná šířka: 39-54-03N, zeměpisná délka: 083-08-14W, výška: 276 m

Aktuální stav počasí

Zpráva byla vytvořena před 24 minutami, v 06:35 UTC
Severozápadní vítr 4 kt
Teplota 2°C
Vlhkost vzduchu 80%
Tlak 1022 hPa
Viditelnost: 16.1 km
Zataženo ve výšce 3300 ft

METAR: KTZR 130635Z AUTO 32004KT 10SM OVC033 02/M01 A3017 RMK AO2 T00171008

Čas: 01:59 (06:59 UTC)


TAF: chybějící

Stav a předpovědi počasí z více než 4 000 letišť (zprávy METAR a TAF).

Červené a žluté tečky na mapě představují dostupné meteorologické stanice.

Když kurzor umístíte na tečku, zobrazí se název stanice.

Pak kliknutím zobrazíte stav a předpověď počasí.

Chcete-li změnit mapu, kliknutím na zelené tlačítko se znaménkem +mapu přiblížíte, kliknutím na zelené tlačítko se znaménkem – mapu oddálíte a kliknutím na zelené šipky přejdete na sousední mapy.


METAR-TAF: